Time;durP1;ratioP1;P1;durP2;ratioP2;P2;SDS_P1;SDS_P2;PMS_P1;PMS_P2;Temp;Humidity;BMP_temperature;BMP_pressure;BME280_temperature;BME280_humidity;BME280_pressure;Samples;Min_cycle;Max_cycle;Signal;HPM_P1;HPM_P2
2021/05/13 00:01:21;;;;;;;8.37;7.40;;;11.10;99.90;;;;;;5075014;28;20276;-53
2021/05/13 00:03:48;;;;;;;8.40;7.57;;;11.10;99.90;;;;;;5075602;28;20213;-47
2021/05/13 00:06:13;;;;;;;7.93;7.13;;;11.10;99.90;;;;;;5076388;28;20661;-47
2021/05/13 00:08:39;;;;;;;10.40;7.40;;;11.20;99.90;;;;;;5075966;28;20166;-48
2021/05/13 00:11:05;;;;;;;9.40;8.40;;;11.10;99.90;;;;;;5076149;28;20538;-47
2021/05/13 00:13:38;;;;;;;8.70;7.80;;;11.20;99.90;;;;;;5073220;28;20226;-53
2021/05/13 00:16:04;;;;;;;8.37;7.47;;;11.10;99.90;;;;;;5075532;28;20186;-50
2021/05/13 00:18:30;;;;;;;8.57;7.60;;;11.10;99.90;;;;;;5074842;28;20186;-50
2021/05/13 00:20:57;;;;;;;8.77;7.57;;;11.10;99.90;;;;;;5074715;28;20611;-49
2021/05/13 00:23:24;;;;;;;8.93;7.57;;;11.00;99.90;;;;;;5075457;28;20669;-54
2021/05/13 00:25:51;;;;;;;8.77;7.93;;;11.00;99.90;;;;;;5074999;28;20181;-52
2021/05/13 00:28:18;;;;;;;9.07;8.10;;;11.00;99.90;;;;;;5074512;28;20185;-48
2021/05/13 00:30:44;;;;;;;9.10;8.13;;;11.00;99.90;;;;;;5073235;28;20179;-53
2021/05/13 00:33:10;;;;;;;8.77;7.80;;;11.00;99.90;;;;;;5077854;28;20261;-49
2021/05/13 00:35:36;;;;;;;9.50;8.43;;;11.00;99.90;;;;;;5074310;28;20214;-51
2021/05/13 00:38:02;;;;;;;9.23;8.33;;;11.00;99.90;;;;;;5077318;28;20243;-51
2021/05/13 00:40:27;;;;;;;9.20;8.30;;;11.00;99.90;;;;;;5074624;28;20623;-49
2021/05/13 00:42:53;;;;;;;9.50;8.43;;;11.00;99.90;;;;;;5055349;28;20245;-57
2021/05/13 00:45:19;;;;;;;7.87;7.07;;;11.00;99.90;;;;;;5059053;28;20198;-55
2021/05/13 00:48:05;;;;;;;8.97;7.97;;;11.10;99.90;;;;;;5056830;28;20195;-48
2021/05/13 00:50:33;;;;;;;8.93;7.93;;;11.10;99.90;;;;;;5055175;28;20159;-47
2021/05/13 00:53:04;;;;;;;8.77;7.70;;;11.10;99.90;;;;;;5054661;28;20187;-50
2021/05/13 00:55:29;;;;;;;8.50;7.60;;;11.20;99.90;;;;;;5056348;28;20258;-56
2021/05/13 00:57:55;;;;;;;8.83;7.63;;;11.10;99.90;;;;;;5056107;28;20234;-52
2021/05/13 01:00:36;;;;;;;8.47;7.57;;;11.10;99.90;;;;;;5055305;28;20214;-52
2021/05/13 01:03:03;;;;;;;8.83;7.93;;;11.10;99.90;;;;;;5054730;28;20725;-56
2021/05/13 01:05:30;;;;;;;8.17;7.37;;;11.20;99.90;;;;;;5056577;28;20210;-51
2021/05/13 01:08:00;;;;;;;8.43;7.33;;;11.10;99.90;;;;;;5057881;28;20206;-53
2021/05/13 01:10:27;;;;;;;8.77;7.17;;;11.10;99.90;;;;;;5055089;28;20651;-52
2021/05/13 01:12:55;;;;;;;8.93;8.03;;;11.10;99.90;;;;;;5058308;28;20183;-50
2021/05/13 01:15:32;;;;;;;8.60;7.37;;;11.10;99.90;;;;;;5054257;28;20197;-55
2021/05/13 01:18:03;;;;;;;8.23;7.33;;;11.10;99.90;;;;;;5054222;28;20230;-48
2021/05/13 01:20:32;;;;;;;9.10;7.40;;;11.10;99.90;;;;;;5054382;28;20569;-47
2021/05/13 01:22:59;;;;;;;8.63;7.73;;;11.00;99.90;;;;;;5052791;28;20585;-47
2021/05/13 01:25:26;;;;;;;8.50;7.60;;;11.00;99.90;;;;;;5054061;28;20175;-47
2021/05/13 01:28:02;;;;;;;8.07;7.27;;;11.00;99.90;;;;;;5053480;28;20226;-47
2021/05/13 01:30:29;;;;;;;7.97;7.17;;;11.00;99.90;;;;;;5054782;28;20244;-49
2021/05/13 01:32:59;;;;;;;8.20;7.40;;;11.00;99.90;;;;;;5055031;28;20710;-48
2021/05/13 01:35:24;;;;;;;8.70;7.60;;;11.00;99.90;;;;;;5055302;28;20564;-55
2021/05/13 01:38:02;;;;;;;9.30;7.80;;;11.00;99.90;;;;;;5054759;28;20717;-53
2021/05/13 01:40:28;;;;;;;9.23;7.57;;;11.00;99.90;;;;;;5058169;28;20179;-51
2021/05/13 01:42:53;;;;;;;9.63;7.43;;;11.00;99.90;;;;;;5056343;28;20207;-49
2021/05/13 01:45:19;;;;;;;8.97;8.03;;;11.00;99.90;;;;;;5057433;28;20191;-48
2021/05/13 01:47:44;;;;;;;8.40;7.60;;;11.00;99.90;;;;;;5057792;28;20223;-48
2021/05/13 01:50:10;;;;;;;8.20;7.40;;;10.90;99.90;;;;;;5058161;28;20236;-54
2021/05/13 01:52:36;;;;;;;9.00;8.07;;;10.90;99.90;;;;;;5057245;28;20584;-55
2021/05/13 01:55:01;;;;;;;8.93;8.03;;;10.80;99.90;;;;;;5056758;28;20179;-51
2021/05/13 01:57:27;;;;;;;8.90;8.00;;;10.80;99.90;;;;;;5057377;28;20281;-49
2021/05/13 01:59:52;;;;;;;9.27;7.80;;;10.80;99.90;;;;;;5056309;28;20221;-47
2021/05/13 02:02:21;;;;;;;8.47;7.57;;;10.90;99.90;;;;;;5055387;28;20199;-52
2021/05/13 02:04:46;;;;;;;8.50;7.60;;;10.90;99.90;;;;;;5055476;28;20539;-50
2021/05/13 02:07:12;;;;;;;9.70;8.20;;;10.90;99.90;;;;;;5054927;28;20191;-49
2021/05/13 02:09:37;;;;;;;7.93;7.10;;;10.90;99.90;;;;;;5056023;28;20198;-54
2021/05/13 02:12:04;;;;;;;8.90;8.00;;;10.90;99.90;;;;;;5056773;28;20171;-50
2021/05/13 02:14:30;;;;;;;7.90;7.10;;;10.90;99.90;;;;;;5056772;28;20183;-49
2021/05/13 02:16:56;;;;;;;8.67;7.80;;;10.90;99.90;;;;;;5059264;28;20225;-47
2021/05/13 02:19:21;;;;;;;8.57;7.77;;;10.80;99.90;;;;;;5057420;28;20179;-47
2021/05/13 02:21:47;;;;;;;8.33;7.43;;;10.80;99.90;;;;;;5057187;28;20219;-53
2021/05/13 02:24:12;;;;;;;8.20;7.40;;;10.90;99.90;;;;;;5058490;28;20175;-55
2021/05/13 02:26:38;;;;;;;8.17;7.37;;;10.90;99.90;;;;;;5059735;28;20202;-57
2021/05/13 02:29:04;;;;;;;9.13;8.13;;;10.80;99.90;;;;;;5058334;28;20262;-49
2021/05/13 02:31:29;;;;;;;8.80;7.90;;;10.80;99.90;;;;;;5059049;28;20190;-53
2021/05/13 02:33:55;;;;;;;8.83;7.93;;;10.80;99.90;;;;;;5060791;28;20202;-54
2021/05/13 02:36:20;;;;;;;8.07;7.10;;;10.80;99.90;;;;;;5061896;28;20226;-51
2021/05/13 02:38:46;;;;;;;9.07;8.10;;;10.80;99.90;;;;;;5058880;28;20198;-47
2021/05/13 02:41:12;;;;;;;9.47;8.23;;;10.80;99.90;;;;;;5055278;28;20187;-54
2021/05/13 02:43:37;;;;;;;8.17;7.37;;;10.80;99.90;;;;;;5056579;28;20179;-53
2021/05/13 02:46:03;;;;;;;9.27;8.00;;;10.80;99.90;;;;;;5056381;28;20191;-48
2021/05/13 02:48:28;;;;;;;8.57;7.67;;;10.70;99.90;;;;;;5057720;28;20258;-52
2021/05/13 02:50:54;;;;;;;9.03;8.00;;;10.70;99.90;;;;;;5056212;28;20631;-52
2021/05/13 02:53:19;;;;;;;8.47;7.67;;;10.70;99.90;;;;;;5055236;28;20257;-52
2021/05/13 02:55:45;;;;;;;7.80;7.00;;;10.70;99.90;;;;;;5056784;28;20186;-48
2021/05/13 02:58:10;;;;;;;8.83;7.93;;;10.70;99.90;;;;;;5055392;28;20581;-51
2021/05/13 03:00:52;;;;;;;7.83;6.97;;;10.70;99.90;;;;;;5057141;28;20182;-46
2021/05/13 03:03:18;;;;;;;7.80;7.10;;;10.60;99.90;;;;;;5058212;28;20221;-53
2021/05/13 03:05:44;;;;;;;9.27;7.80;;;10.80;99.90;;;;;;5056114;28;20195;-54
2021/05/13 03:08:11;;;;;;;8.60;7.77;;;10.80;99.90;;;;;;5059944;28;20175;-49
2021/05/13 03:13:03;;;;;;;8.53;7.57;;;10.70;99.90;;;;;;5055446;28;20325;-47
2021/05/13 03:15:29;;;;;;;8.07;7.27;;;10.70;99.90;;;;;;5059636;28;20187;-55
2021/05/13 03:17:55;;;;;;;8.63;7.73;;;10.80;99.90;;;;;;5057110;28;20202;-52
2021/05/13 03:20:26;;;;;;;9.60;7.60;;;10.70;99.90;;;;;;5058274;28;20185;-47
2021/05/13 03:22:56;;;;;;;8.37;7.30;;;10.70;99.90;;;;;;5058357;28;20562;-52
2021/05/13 03:25:42;;;;;;;7.87;7.07;;;10.60;99.90;;;;;;5057663;28;20221;-47
2021/05/13 03:28:09;;;;;;;8.27;7.37;;;10.70;99.90;;;;;;5058491;28;20266;-54
2021/05/13 03:30:36;;;;;;;8.10;7.30;;;10.60;99.90;;;;;;5059141;28;20167;-47
2021/05/13 03:33:02;;;;;;;8.60;7.70;;;10.60;99.90;;;;;;5072638;28;20205;-47
2021/05/13 03:35:28;;;;;;;8.00;7.20;;;10.60;99.90;;;;;;5077415;28;20200;-49
2021/05/13 03:37:54;;;;;;;10.00;9.00;;;10.60;99.90;;;;;;5075970;28;20229;-48
2021/05/13 03:40:19;;;;;;;8.10;7.30;;;10.70;99.90;;;;;;5078309;28;20181;-48
2021/05/13 03:42:45;;;;;;;8.47;7.57;;;10.70;99.90;;;;;;5076244;28;20281;-47
2021/05/13 03:45:11;;;;;;;8.37;7.57;;;10.70;99.90;;;;;;5076825;28;20190;-54
2021/05/13 03:47:36;;;;;;;9.33;8.33;;;10.70;99.90;;;;;;5077056;28;20217;-51
2021/05/13 03:50:03;;;;;;;8.77;7.67;;;10.60;99.90;;;;;;5075900;28;20235;-57
2021/05/13 03:52:28;;;;;;;8.93;8.03;;;10.60;99.90;;;;;;5076348;28;20631;-56
2021/05/13 03:54:54;;;;;;;9.30;8.30;;;10.70;99.90;;;;;;5075996;28;20308;-49
2021/05/13 03:57:20;;;;;;;9.67;7.90;;;10.70;99.90;;;;;;5076399;28;20218;-47
2021/05/13 03:59:45;;;;;;;7.90;7.20;;;10.70;99.90;;;;;;5076074;28;20261;-56
2021/05/13 04:02:25;;;;;;;9.17;8.27;;;10.70;99.90;;;;;;5074511;28;20218;-55
2021/05/13 04:04:51;;;;;;;9.07;8.17;;;10.70;99.90;;;;;;5077269;28;20229;-53
2021/05/13 04:07:17;;;;;;;9.30;8.40;;;10.60;99.90;;;;;;5077014;28;20187;-56
2021/05/13 04:09:42;;;;;;;9.07;7.80;;;10.60;99.90;;;;;;5075756;28;20174;-48
2021/05/13 04:12:08;;;;;;;9.43;8.33;;;10.60;99.90;;;;;;5076851;28;20171;-51
2021/05/13 04:14:34;;;;;;;9.43;8.53;;;10.50;99.90;;;;;;5076177;28;20182;-48
2021/05/13 04:17:01;;;;;;;8.63;7.73;;;10.50;99.90;;;;;;5074816;28;20214;-49
2021/05/13 04:19:27;;;;;;;10.00;8.20;;;10.60;99.90;;;;;;5076087;28;20182;-54
2021/05/13 04:21:53;;;;;;;8.67;7.80;;;10.60;99.90;;;;;;5074862;28;20733;-53
2021/05/13 04:24:18;;;;;;;8.57;7.70;;;10.60;99.90;;;;;;5074771;28;20173;-54
2021/05/13 04:26:45;;;;;;;8.67;7.77;;;10.60;99.90;;;;;;5074920;28;20198;-48
2021/05/13 04:29:11;;;;;;;8.87;7.97;;;10.60;99.90;;;;;;5074984;28;20171;-47
2021/05/13 04:31:37;;;;;;;8.73;7.83;;;10.60;99.90;;;;;;5076088;28;20515;-49
2021/05/13 04:34:06;;;;;;;8.47;7.57;;;10.60;99.90;;;;;;5076937;28;20240;-51
2021/05/13 04:36:32;;;;;;;8.97;8.00;;;10.50;99.90;;;;;;5075431;28;20198;-54
2021/05/13 04:38:58;;;;;;;9.17;7.90;;;10.50;99.90;;;;;;5076567;28;20171;-54
2021/05/13 04:41:25;;;;;;;9.30;8.30;;;9.10;99.90;;;;;;5077117;28;20228;-56
2021/05/13 04:43:50;;;;;;;8.80;7.90;;;10.50;99.90;;;;;;5074999;28;20193;-54
2021/05/13 04:46:17;;;;;;;8.27;7.47;;;10.50;99.90;;;;;;5076740;28;20277;-49
2021/05/13 04:51:18;;;;;;;8.57;7.63;;;10.60;99.90;;;;;;5076078;28;20261;-55
2021/05/13 04:53:46;;;;;;;8.20;7.40;;;10.50;99.90;;;;;;5075330;28;20204;-54
2021/05/13 04:56:12;;;;;;;9.97;8.10;;;10.50;99.90;;;;;;5075162;28;20210;-53
2021/05/13 04:58:37;;;;;;;8.53;7.63;;;10.60;99.90;;;;;;5074460;28;20216;-54
2021/05/13 05:01:03;;;;;;;8.07;7.27;;;10.60;99.90;;;;;;5074371;28;20480;-50
2021/05/13 05:03:28;;;;;;;10.23;8.23;;;10.60;99.90;;;;;;5076352;28;20187;-54
2021/05/13 05:05:54;;;;;;;8.37;7.57;;;10.50;99.90;;;;;;5076480;28;20170;-49
2021/05/13 05:08:19;;;;;;;8.10;7.27;;;10.50;99.90;;;;;;5070148;28;20244;-50
2021/05/13 05:10:46;;;;;;;8.80;7.90;;;10.60;99.90;;;;;;5060428;28;20179;-51
2021/05/13 05:13:11;;;;;;;8.13;7.33;;;10.50;99.90;;;;;;5057211;28;20221;-52
2021/05/13 05:15:37;;;;;;;8.43;7.53;;;10.50;99.90;;;;;;5056019;28;20191;-53
2021/05/13 05:18:03;;;;;;;7.97;7.17;;;10.50;99.90;;;;;;5054313;28;20167;-49
2021/05/13 05:20:28;;;;;;;9.40;8.40;;;10.50;99.90;;;;;;5053881;28;20185;-47
2021/05/13 05:22:54;;;;;;;8.23;6.97;;;10.50;99.90;;;;;;5053810;28;20548;-50
2021/05/13 05:25:20;;;;;;;8.00;7.20;;;10.50;99.90;;;;;;5056798;28;20175;-47
2021/05/13 05:27:45;;;;;;;7.97;7.17;;;10.50;99.90;;;;;;5074609;28;20221;-53
2021/05/13 05:30:11;;;;;;;7.80;7.00;;;10.50;99.90;;;;;;5074166;28;20542;-57
2021/05/13 05:32:37;;;;;;;9.57;6.87;;;10.50;99.90;;;;;;5074013;28;20209;-55
2021/05/13 05:35:04;;;;;;;8.03;7.10;;;10.60;99.90;;;;;;5068724;28;20527;-53
2021/05/13 05:37:30;;;;;;;7.33;6.60;;;10.50;99.90;;;;;;5070862;28;20224;-54
2021/05/13 05:39:55;;;;;;;8.17;6.60;;;10.50;99.90;;;;;;5047769;28;20179;-47
2021/05/13 05:42:21;;;;;;;9.30;6.63;;;10.50;99.90;;;;;;5068448;28;20221;-52
2021/05/13 05:44:47;;;;;;;7.23;6.43;;;10.40;99.90;;;;;;5074575;28;20642;-50
2021/05/13 05:47:16;;;;;;;7.13;6.43;;;10.40;99.90;;;;;;5054549;28;20581;-57
2021/05/13 05:49:42;;;;;;;8.23;6.53;;;10.40;99.90;;;;;;5055786;28;20175;-53
2021/05/13 05:52:08;;;;;;;7.20;6.50;;;10.50;99.90;;;;;;5063386;28;20187;-49
2021/05/13 05:54:33;;;;;;;7.13;6.43;;;10.40;99.90;;;;;;5061891;28;20253;-48
2021/05/13 05:56:59;;;;;;;8.53;6.33;;;10.50;99.90;;;;;;5063250;28;20218;-48
2021/05/13 05:59:24;;;;;;;6.80;6.10;;;10.40;99.90;;;;;;5073788;28;20181;-54
2021/05/13 06:01:50;;;;;;;7.13;6.43;;;10.40;99.90;;;;;;5066960;28;20211;-49
2021/05/13 06:04:16;;;;;;;9.40;6.23;;;10.50;99.90;;;;;;5063265;28;20266;-53
2021/05/13 06:06:41;;;;;;;8.27;6.80;;;10.60;99.90;;;;;;5067881;28;20264;-50
2021/05/13 06:09:07;;;;;;;6.87;6.17;;;10.60;99.90;;;;;;5048326;28;20220;-49
2021/05/13 06:11:33;;;;;;;7.67;6.50;;;10.60;99.90;;;;;;5071937;28;20178;-49
2021/05/13 06:13:59;;;;;;;7.63;6.80;;;10.70;99.90;;;;;;5075855;28;20507;-53
2021/05/13 06:16:24;;;;;;;7.93;7.13;;;10.70;99.90;;;;;;5073575;28;20277;-52
2021/05/13 06:18:55;;;;;;;7.17;6.47;;;10.60;99.90;;;;;;5058098;28;20183;-54
2021/05/13 06:21:22;;;;;;;7.57;6.83;;;10.60;99.90;;;;;;5070890;28;20574;-48
2021/05/13 06:23:52;;;;;;;7.40;6.70;;;10.60;99.90;;;;;;5053800;28;20167;-52
2021/05/13 06:26:23;;;;;;;7.07;6.37;;;10.60;99.90;;;;;;5057573;28;20192;-53
2021/05/13 06:28:48;;;;;;;7.80;7.10;;;10.60;99.90;;;;;;5057524;28;20245;-51
2021/05/13 06:31:14;;;;;;;7.43;6.67;;;10.60;99.90;;;;;;5062784;28;20171;-50
2021/05/13 06:33:39;;;;;;;6.83;6.17;;;10.60;99.90;;;;;;5077960;28;20167;-50
2021/05/13 06:36:05;;;;;;;7.70;6.90;;;10.70;99.90;;;;;;5071695;28;20215;-52
2021/05/13 06:38:31;;;;;;;6.90;6.17;;;10.70;99.90;;;;;;5062336;28;20198;-54
2021/05/13 06:40:57;;;;;;;6.93;6.23;;;10.70;99.90;;;;;;5064140;28;20186;-51
2021/05/13 06:43:23;;;;;;;7.23;6.10;;;10.70;99.90;;;;;;5070243;28;20203;-52
2021/05/13 06:45:49;;;;;;;6.70;5.80;;;10.60;99.90;;;;;;5072181;28;20178;-47
2021/05/13 06:48:14;;;;;;;6.80;6.10;;;10.70;99.90;;;;;;5051549;28;20191;-51
2021/05/13 06:50:40;;;;;;;7.65;6.47;;;10.70;99.90;;;;;;5074189;28;20900;-49
2021/05/13 06:53:07;;;;;;;7.27;6.27;;;10.70;99.90;;;;;;5070440;28;20225;-49
2021/05/13 06:55:33;;;;;;;7.33;5.87;;;10.60;99.90;;;;;;5056233;28;20187;-48
2021/05/13 06:57:59;;;;;;;6.97;6.27;;;10.60;99.90;;;;;;5062934;28;20257;-55
2021/05/13 07:00:25;;;;;;;6.93;6.23;;;10.70;99.90;;;;;;5054707;28;20241;-48
2021/05/13 07:02:51;;;;;;;6.40;5.80;;;10.70;99.90;;;;;;5054189;28;20253;-47
2021/05/13 07:05:17;;;;;;;7.17;6.47;;;10.70;99.90;;;;;;5059126;28;20651;-50
2021/05/13 07:07:43;;;;;;;7.70;6.10;;;10.80;99.90;;;;;;5054528;28;20230;-48
2021/05/13 07:10:10;;;;;;;7.53;6.47;;;10.70;99.90;;;;;;5071118;28;20178;-47
2021/05/13 07:12:36;;;;;;;7.87;5.93;;;10.70;99.90;;;;;;5075572;28;20557;-49
2021/05/13 07:15:02;;;;;;;7.10;6.40;;;10.70;99.90;;;;;;5075658;28;20647;-53
2021/05/13 07:17:28;;;;;;;7.97;6.60;;;10.70;99.90;;;;;;5074431;28;20218;-49
2021/05/13 07:19:53;;;;;;;7.63;6.90;;;10.70;99.90;;;;;;5064471;28;20182;-50
2021/05/13 07:22:19;;;;;;;6.97;6.27;;;10.70;99.90;;;;;;5056970;28;20195;-49
2021/05/13 07:24:45;;;;;;;6.97;6.20;;;10.70;99.90;;;;;;5058827;28;20187;-50
2021/05/13 07:27:10;;;;;;;7.53;6.27;;;10.70;99.90;;;;;;5055669;28;20195;-48
2021/05/13 07:29:37;;;;;;;6.90;6.20;;;10.70;99.90;;;;;;5069491;28;20178;-49
2021/05/13 07:32:03;;;;;;;6.97;5.90;;;10.70;99.90;;;;;;5074819;28;20883;-50
2021/05/13 07:34:29;;;;;;;6.57;5.97;;;10.60;99.90;;;;;;5075164;28;20534;-47
2021/05/13 07:36:54;;;;;;;6.77;6.03;;;10.60;99.90;;;;;;5075126;28;20677;-49
2021/05/13 07:39:20;;;;;;;6.77;6.07;;;10.60;99.90;;;;;;5074736;28;20537;-51
2021/05/13 07:41:46;;;;;;;6.63;6.00;;;10.60;99.90;;;;;;5041121;28;20218;-48
2021/05/13 07:44:12;;;;;;;7.20;6.33;;;10.60;99.90;;;;;;5054855;28;20183;-49
2021/05/13 07:46:39;;;;;;;6.50;5.90;;;10.70;99.90;;;;;;5055095;28;20195;-50
2021/05/13 07:49:05;;;;;;;6.80;5.67;;;10.60;99.90;;;;;;5054177;28;20171;-55
2021/05/13 07:51:32;;;;;;;6.27;5.50;;;10.70;99.90;;;;;;5067212;28;20541;-49
2021/05/13 07:53:58;;;;;;;6.23;5.47;;;10.60;99.90;;;;;;5075095;28;20178;-49
2021/05/13 07:56:24;;;;;;;6.20;5.40;;;10.60;99.90;;;;;;5075257;28;20208;-52
2021/05/13 07:58:49;;;;;;;6.90;5.67;;;10.70;99.90;;;;;;5074690;28;20239;-48
2021/05/13 08:01:15;;;;;;;6.17;5.53;;;10.60;99.90;;;;;;5073796;28;20217;-51
2021/05/13 08:03:40;;;;;;;6.07;5.47;;;10.60;99.90;;;;;;5074310;28;20563;-53
2021/05/13 08:06:06;;;;;;;6.23;5.40;;;10.60;99.90;;;;;;5074474;28;20190;-48
2021/05/13 08:08:31;;;;;;;5.73;5.23;;;10.70;99.90;;;;;;5073556;28;20277;-47
2021/05/13 08:10:57;;;;;;;5.87;5.30;;;10.70;99.90;;;;;;5074547;28;20701;-51
2021/05/13 08:13:23;;;;;;;6.23;5.63;;;10.70;99.90;;;;;;5074632;28;20175;-49
2021/05/13 08:15:49;;;;;;;5.80;5.20;;;10.70;99.90;;;;;;5074714;28;20194;-51
2021/05/13 08:18:14;;;;;;;5.93;5.33;;;10.70;99.90;;;;;;5043183;28;20673;-48
2021/05/13 08:20:40;;;;;;;5.17;4.70;;;10.60;99.90;;;;;;5054495;28;20912;-50
2021/05/13 08:23:07;;;;;;;5.43;4.93;;;10.70;99.90;;;;;;5054952;28;20282;-53
2021/05/13 08:25:32;;;;;;;5.70;5.03;;;10.70;99.90;;;;;;5063096;28;20179;-49
2021/05/13 08:27:58;;;;;;;5.40;4.90;;;10.70;99.90;;;;;;5063582;28;20190;-53
2021/05/13 08:30:23;;;;;;;5.57;5.07;;;10.70;99.90;;;;;;5064191;28;20194;-48
2021/05/13 08:32:49;;;;;;;5.40;4.90;;;10.70;99.90;;;;;;5062962;28;21146;-48
2021/05/13 08:35:15;;;;;;;5.47;4.97;;;10.70;99.90;;;;;;5045812;28;20214;-48
2021/05/13 08:37:41;;;;;;;5.93;5.43;;;10.70;99.90;;;;;;5063485;28;20210;-48
2021/05/13 08:40:08;;;;;;;5.67;4.93;;;10.80;99.90;;;;;;5064989;28;20177;-50
2021/05/13 08:42:34;;;;;;;5.80;5.20;;;10.80;99.90;;;;;;5062169;28;20256;-46
2021/05/13 08:45:00;;;;;;;5.60;4.80;;;10.80;99.90;;;;;;5063058;28;20183;-46
2021/05/13 08:47:25;;;;;;;5.30;4.80;;;10.80;99.90;;;;;;5064209;28;20191;-54
2021/05/13 08:49:51;;;;;;;5.60;5.10;;;10.80;99.90;;;;;;5028321;28;20186;-52
2021/05/13 08:52:18;;;;;;;5.87;5.23;;;10.70;99.90;;;;;;5063125;28;20800;-54
2021/05/13 08:55:10;;;;;;;5.47;4.97;;;10.70;99.90;;;;;;5063931;28;20175;-47
2021/05/13 08:57:36;;;;;;;5.50;5.00;;;10.70;99.90;;;;;;5058229;28;20579;-48
2021/05/13 09:00:06;;;;;;;6.07;5.10;;;10.70;99.90;;;;;;5063608;28;20186;-50
2021/05/13 09:02:33;;;;;;;5.60;5.10;;;10.70;99.90;;;;;;5061715;28;20190;-53
2021/05/13 09:05:00;;;;;;;6.03;5.43;;;10.70;99.90;;;;;;5062291;28;20225;-47
2021/05/13 09:07:29;;;;;;;6.00;5.50;;;10.70;99.90;;;;;;5062211;28;20195;-52
2021/05/13 09:09:56;;;;;;;5.70;5.10;;;10.70;99.90;;;;;;5062148;28;20167;-48
2021/05/13 09:12:30;;;;;;;5.87;5.30;;;10.80;99.90;;;;;;5062331;28;20725;-50
2021/05/13 09:15:20;;;;;;;6.27;5.67;;;10.80;99.90;;;;;;5062917;28;20166;-48
2021/05/13 09:17:48;;;;;;;6.33;5.73;;;10.80;99.90;;;;;;5063759;28;20269;-50
2021/05/13 09:20:38;;;;;;;6.20;5.50;;;10.80;99.90;;;;;;5045193;28;20181;-50
2021/05/13 09:23:26;;;;;;;5.80;5.30;;;10.90;99.90;;;;;;5063335;28;20573;-46
2021/05/13 09:26:08;;;;;;;6.07;5.47;;;10.80;99.90;;;;;;5067058;28;20170;-53
2021/05/13 09:28:35;;;;;;;5.90;4.70;;;10.80;99.90;;;;;;5064333;28;20170;-46
2021/05/13 09:31:00;;;;;;;5.63;5.03;;;10.80;99.90;;;;;;5043409;28;20179;-50
2021/05/13 09:33:28;;;;;;;5.30;4.80;;;10.80;99.90;;;;;;5062848;28;20170;-54
2021/05/13 09:35:54;;;;;;;6.33;5.50;;;10.80;99.90;;;;;;5021362;28;20220;-50
2021/05/13 09:38:32;;;;;;;5.00;4.60;;;10.90;99.90;;;;;;5019757;28;20204;-50
2021/05/13 09:40:58;;;;;;;5.30;4.80;;;10.90;99.90;;;;;;5022204;28;20597;-53
2021/05/13 09:43:31;;;;;;;6.67;4.80;;;10.80;99.90;;;;;;5021610;28;20714;-48
2021/05/13 09:45:59;;;;;;;5.00;4.40;;;10.70;99.90;;;;;;5020729;28;20602;-50
2021/05/13 09:48:31;;;;;;;4.77;4.37;;;10.70;99.90;;;;;;5005865;28;20172;-49
2021/05/13 09:51:14;;;;;;;6.07;4.73;;;10.70;99.90;;;;;;5020429;28;20180;-50
2021/05/13 09:53:40;;;;;;;4.77;4.27;;;10.70;99.90;;;;;;5019999;28;20224;-48
2021/05/13 09:56:27;;;;;;;4.43;4.03;;;10.70;99.90;;;;;;5003791;28;20223;-47
2021/05/13 09:58:53;;;;;;;4.57;4.00;;;10.70;99.90;;;;;;5010994;28;20180;-48
2021/05/13 10:01:19;;;;;;;4.73;4.03;;;10.70;99.90;;;;;;5010153;28;20187;-50
2021/05/13 10:03:46;;;;;;;4.57;4.07;;;10.70;99.90;;;;;;5011915;28;20215;-53
2021/05/13 10:06:12;;;;;;;4.60;4.20;;;10.80;99.90;;;;;;5024075;28;20256;-48
2021/05/13 10:08:42;;;;;;;5.03;4.53;;;10.80;99.90;;;;;;5057329;28;20171;-45
2021/05/13 10:11:08;;;;;;;5.17;4.20;;;10.90;99.90;;;;;;5055695;28;20187;-54
2021/05/13 10:13:34;;;;;;;4.30;3.73;;;11.00;99.90;;;;;;5056375;28;20507;-49
2021/05/13 10:16:01;;;;;;;4.30;3.53;;;10.90;99.90;;;;;;5057031;28;20198;-46
2021/05/13 10:18:40;;;;;;;4.03;3.50;;;10.90;99.90;;;;;;5070981;28;20170;-50
2021/05/13 10:21:13;;;;;;;4.97;3.63;;;10.90;99.90;;;;;;5075929;28;20626;-49
2021/05/13 10:23:40;;;;;;;3.97;3.37;;;10.90;99.90;;;;;;5075747;28;20244;-50
2021/05/13 10:26:07;;;;;;;3.50;3.20;;;11.00;99.90;;;;;;5076555;28;20329;-48
2021/05/13 10:28:34;;;;;;;3.43;3.00;;;11.00;99.90;;;;;;5075271;28;20174;-48
2021/05/13 10:31:07;;;;;;;3.43;3.13;;;11.00;99.90;;;;;;5076339;28;20170;-52
2021/05/13 10:33:50;;;;;;;3.93;3.60;;;11.00;99.90;;;;;;5076079;28;20352;-47
2021/05/13 10:36:17;;;;;;;3.90;3.47;;;11.00;99.90;;;;;;5075856;28;20200;-48
2021/05/13 10:38:54;;;;;;;6.40;5.37;;;10.90;99.90;;;;;;5073819;28;20183;-49
2021/05/13 10:41:29;;;;;;;4.50;4.10;;;11.00;99.90;;;;;;5074453;28;20621;-50
2021/05/13 10:44:18;;;;;;;4.80;3.00;;;11.00;99.90;;;;;;5078316;28;20261;-46
2021/05/13 10:46:55;;;;;;;3.23;2.93;;;11.00;99.90;;;;;;5091345;28;20282;-46
2021/05/13 10:49:23;;;;;;;3.87;2.97;;;11.10;99.90;;;;;;5084445;28;20193;-50
2021/05/13 10:51:52;;;;;;;3.20;2.90;;;11.10;99.90;;;;;;5096130;28;20181;-47
2021/05/13 10:54:43;;;;;;;3.50;2.97;;;11.20;99.90;;;;;;5091405;28;20181;-47
2021/05/13 10:57:13;;;;;;;2.80;2.60;;;11.20;99.90;;;;;;5056985;28;20208;-49
2021/05/13 10:59:58;;;;;;;3.53;2.50;;;11.20;99.90;;;;;;5087841;28;20175;-50
2021/05/13 11:02:40;;;;;;;2.40;2.30;;;11.20;99.90;;;;;;5089448;28;20315;-46
2021/05/13 11:05:33;;;;;;;2.67;2.47;;;11.20;99.90;;;;;;5055643;28;20182;-50
2021/05/13 11:08:04;;;;;;;3.73;2.50;;;11.20;99.90;;;;;;5058800;28;20209;-50
2021/05/13 11:10:48;;;;;;;2.47;2.27;;;11.40;99.90;;;;;;5055937;28;20171;-46
2021/05/13 11:13:14;;;;;;;2.77;2.57;;;11.50;99.90;;;;;;5055617;28;20233;-47
2021/05/13 11:15:46;;;;;;;3.00;2.60;;;11.50;99.90;;;;;;5062201;28;20210;-52
2021/05/13 11:18:17;;;;;;;2.60;2.40;;;11.60;99.90;;;;;;5062146;28;20190;-48
2021/05/13 11:20:45;;;;;;;2.40;2.20;;;11.70;99.90;;;;;;5055343;28;20171;-52
2021/05/13 11:23:14;;;;;;;3.23;2.50;;;11.80;99.90;;;;;;5055393;28;20250;-45
2021/05/13 11:25:51;;;;;;;2.40;2.20;;;11.80;99.90;;;;;;5055412;28;20197;-51
2021/05/13 11:28:28;;;;;;;2.50;2.10;;;12.00;99.90;;;;;;5055783;28;20158;-53
2021/05/13 11:30:55;;;;;;;2.67;2.10;;;12.00;99.90;;;;;;5055288;28;20721;-48
2021/05/13 11:33:21;;;;;;;2.20;2.00;;;12.10;99.90;;;;;;5055919;28;20182;-49
2021/05/13 11:35:47;;;;;;;1.97;1.87;;;12.10;99.90;;;;;;5055403;28;20179;-50
2021/05/13 11:38:23;;;;;;;2.30;2.10;;;12.10;99.90;;;;;;5055244;28;20550;-46
2021/05/13 11:40:53;;;;;;;2.33;2.17;;;12.20;99.90;;;;;;5055148;28;20171;-50
2021/05/13 11:43:33;;;;;;;2.13;1.97;;;12.20;99.90;;;;;;5054986;28;20213;-49
2021/05/13 11:46:01;;;;;;;2.50;2.10;;;12.10;99.90;;;;;;5055388;28;20195;-47
2021/05/13 11:48:41;;;;;;;2.33;2.13;;;12.10;99.90;;;;;;5055749;28;20182;-50
2021/05/13 11:51:20;;;;;;;2.47;2.10;;;12.20;99.90;;;;;;5055135;28;20242;-48
2021/05/13 11:53:48;;;;;;;2.23;2.07;;;12.20;99.90;;;;;;5055346;28;20178;-50
2021/05/13 11:56:14;;;;;;;1.80;1.70;;;12.20;99.90;;;;;;5054787;28;20578;-51
2021/05/13 11:58:46;;;;;;;2.50;2.30;;;12.20;99.90;;;;;;5054804;28;20605;-52
2021/05/13 12:01:18;;;;;;;2.30;2.10;;;12.10;99.90;;;;;;5054749;28;20415;-55
2021/05/13 12:03:45;;;;;;;2.83;2.17;;;12.20;99.90;;;;;;5055011;28;20168;-48
2021/05/13 12:06:11;;;;;;;2.17;2.00;;;12.20;99.90;;;;;;5054580;28;20195;-48
2021/05/13 12:08:38;;;;;;;2.23;2.03;;;12.30;99.90;;;;;;5054563;28;20179;-47
2021/05/13 12:11:20;;;;;;;2.57;2.37;;;12.40;99.90;;;;;;5054806;28;20179;-47
2021/05/13 12:13:47;;;;;;;2.83;2.33;;;12.40;99.90;;;;;;5054701;28;20239;-51
2021/05/13 12:16:13;;;;;;;2.70;2.50;;;12.40;99.90;;;;;;5054131;28;20201;-50
2021/05/13 12:18:42;;;;;;;2.80;2.60;;;12.40;99.90;;;;;;5071212;28;20258;-55
2021/05/13 12:21:08;;;;;;;2.30;2.20;;;12.50;99.90;;;;;;5074489;28;20163;-47
2021/05/13 12:23:35;;;;;;;3.60;2.43;;;12.50;99.90;;;;;;5067391;28;20206;-48
2021/05/13 12:26:01;;;;;;;2.80;2.57;;;12.50;99.90;;;;;;5061785;28;20187;-50
2021/05/13 12:28:27;;;;;;;2.60;2.10;;;12.50;99.90;;;;;;5061529;28;20541;-48
2021/05/13 12:30:56;;;;;;;2.80;2.60;;;12.50;99.90;;;;;;5073852;28;20192;-51
2021/05/13 12:33:35;;;;;;;2.10;1.90;;;12.40;99.90;;;;;;5073911;28;20622;-49
2021/05/13 12:36:01;;;;;;;2.43;2.23;;;12.40;99.90;;;;;;5074395;28;20190;-48
2021/05/13 12:38:27;;;;;;;1.97;1.83;;;12.40;99.90;;;;;;5073818;28;20190;-49
2021/05/13 12:41:13;;;;;;;2.47;2.27;;;12.40;99.90;;;;;;5073941;28;20181;-49
2021/05/13 12:43:39;;;;;;;3.07;2.43;;;12.40;99.90;;;;;;5073601;28;20360;-48
2021/05/13 12:46:22;;;;;;;2.17;1.97;;;12.40;99.90;;;;;;5067612;28;20277;-49
2021/05/13 12:48:51;;;;;;;2.27;1.93;;;12.40;99.90;;;;;;5071269;28;20289;-48
2021/05/13 12:51:24;;;;;;;1.80;1.70;;;12.30;99.90;;;;;;5073648;28;20161;-48
2021/05/13 12:53:56;;;;;;;2.93;2.67;;;12.40;99.90;;;;;;5073989;28;20631;-50
2021/05/13 12:56:31;;;;;;;1.90;1.80;;;12.50;99.90;;;;;;5073771;28;20195;-47